Time;durP1;ratioP1;P1;durP2;ratioP2;P2;SDS_P1;SDS_P2;PMS_P1;PMS_P2;Temp;Humidity;BMP_temperature;BMP_pressure;BME280_temperature;BME280_humidity;BME280_pressure;Samples;Min_cycle;Max_cycle;Signal;HPM_P1;HPM_P2
2022/01/05 00:02:07;;;;;;;0.47;0.40;;;;;;;3.70;98.67;99837.34;5091953;28;20059;-72
2022/01/05 00:04:33;;;;;;;1.30;0.98;;;;;;;3.70;98.67;99834.75;5102629;28;20119;-72
2022/01/05 00:07:00;;;;;;;1.77;1.10;;;;;;;3.73;99.00;99837.16;5101828;28;20036;-72
2022/01/05 00:09:26;;;;;;;4.88;1.80;;;;;;;3.76;98.84;99838.69;5094826;28;20121;-71
2022/01/05 00:11:54;;;;;;;7.95;1.00;;;;;;;3.68;98.68;99839.19;5088145;28;20109;-72
2022/01/05 00:14:21;;;;;;;0.98;0.52;;;;;;;3.71;98.98;99843.34;5101126;28;20083;-72
2022/01/05 00:16:47;;;;;;;1.77;0.70;;;;;;;3.68;99.42;99846.97;5121404;28;20170;-72
2022/01/05 00:19:14;;;;;;;1.75;1.08;;;;;;;3.67;98.94;99845.31;5094197;28;20044;-71
2022/01/05 00:21:41;;;;;;;3.58;1.17;;;;;;;3.70;98.96;99847.72;5097446;28;20039;-72
2022/01/05 00:24:08;;;;;;;2.28;0.70;;;;;;;3.63;98.78;99848.22;5092711;28;20044;-72
2022/01/05 00:26:34;;;;;;;2.22;1.48;;;;;;;3.60;98.88;99836.25;5093479;28;20046;-72
2022/01/05 00:29:03;;;;;;;8.05;0.70;;;;;;;3.66;98.54;99853.22;5083976;28;20507;-72
2022/01/05 00:31:29;;;;;;;9.75;0.40;;;;;;;3.67;98.41;99857.47;5093044;28;20043;-71
2022/01/05 00:33:56;;;;;;;6.07;0.95;;;;;;;3.63;99.11;99859.44;5089986;28;20068;-71
2022/01/05 00:36:23;;;;;;;4.45;0.68;;;;;;;3.62;98.39;99857.78;5089183;28;20046;-71
2022/01/05 00:38:50;;;;;;;3.97;1.08;;;;;;;3.68;98.78;99859.97;5092597;28;20123;-71
2022/01/05 00:41:16;;;;;;;2.13;1.17;;;;;;;3.62;98.01;99860.38;5085672;28;20050;-72
2022/01/05 00:46:10;;;;;;;7.57;2.08;;;;;;;3.64;98.10;99849.88;5042489;28;20766;-71
2022/01/05 00:48:37;;;;;;;2.15;1.48;;;;;;;3.56;97.62;99855.59;5033952;28;20048;-74
2022/01/05 00:51:04;;;;;;;2.40;0.95;;;;;;;3.53;98.01;99854.97;5033885;28;20502;-72
2022/01/05 00:53:30;;;;;;;1.20;0.43;;;;;;;3.50;98.35;99853.38;5031889;28;20041;-71
2022/01/05 00:55:57;;;;;;;1.65;0.95;;;;;;;3.44;97.70;99856.38;5032828;28;20045;-72
2022/01/05 00:58:23;;;;;;;3.90;1.17;;;;;;;3.36;98.17;99853.44;5032140;28;20111;-73
2022/01/05 01:00:50;;;;;;;1.65;1.10;;;;;;;3.31;98.45;99859.84;5022688;28;20140;-71
2022/01/05 01:03:18;;;;;;;1.35;0.95;;;;;;;3.26;98.28;99867.91;5028846;28;20041;-72
2022/01/05 01:05:45;;;;;;;3.72;1.70;;;;;;;3.20;97.89;99873.50;5028408;28;20052;-71
2022/01/05 01:08:12;;;;;;;1.50;0.90;;;;;;;3.20;98.42;99867.50;5030349;28;20037;-73
2022/01/05 01:10:38;;;;;;;1.63;0.88;;;;;;;3.17;97.89;99872.84;5028628;28;20133;-73
2022/01/05 01:13:05;;;;;;;0.88;0.82;;;;;;;3.19;97.77;99871.81;5030387;28;20045;-72
2022/01/05 01:15:32;;;;;;;2.20;0.80;;;;;;;3.17;97.68;99870.25;5030976;28;20073;-71
2022/01/05 01:17:59;;;;;;;0.47;0.47;;;;;;;3.13;97.58;99865.38;5033757;28;20077;-72
2022/01/05 01:20:26;;;;;;;0.90;0.70;;;;;;;3.01;97.23;99866.13;5039313;28;20049;-72
2022/01/05 01:22:53;;;;;;;4.30;1.20;;;;;;;3.01;97.45;99866.97;5032667;28;20076;-73
2022/01/05 01:25:20;;;;;;;2.88;0.55;;;;;;;2.88;97.56;99876.41;5029650;28;20052;-71
2022/01/05 01:27:47;;;;;;;1.27;1.17;;;;;;;2.83;97.26;99881.06;5022094;28;20046;-72
2022/01/05 01:30:13;;;;;;;5.18;1.25;;;;;;;2.73;97.76;99879.13;5035944;28;20515;-73
2022/01/05 01:32:40;;;;;;;16.92;0.93;;;;;;;2.73;97.58;99879.13;5032463;28;20041;-72
2022/01/05 01:35:08;;;;;;;3.30;1.55;;;;;;;2.53;97.97;99879.50;5032705;28;20037;-71
2022/01/05 01:37:36;;;;;;;1.25;0.82;;;;;;;2.57;98.05;99883.59;5032467;28;20102;-73
2022/01/05 01:40:03;;;;;;;0.68;0.55;;;;;;;2.57;98.30;99881.81;5030397;28;20042;-72
2022/01/05 01:42:29;;;;;;;3.95;0.80;;;;;;;2.56;97.80;99890.50;5036953;28;20052;-72
2022/01/05 01:44:56;;;;;;;2.45;0.93;;;;;;;2.52;97.48;99883.00;5026958;28;20069;-72
2022/01/05 01:47:23;;;;;;;2.63;0.98;;;;;;;2.53;97.46;99897.63;5027757;28;20141;-72
2022/01/05 01:49:49;;;;;;;0.70;0.43;;;;;;;2.55;97.25;99906.16;5025069;28;20069;-71
2022/01/05 01:52:16;;;;;;;1.98;0.73;;;;;;;2.52;96.76;99903.75;5026252;28;20056;-72
2022/01/05 01:54:44;;;;;;;9.75;1.88;;;;;;;2.59;95.64;99905.88;5024997;28;20049;-71
2022/01/05 01:57:10;;;;;;;2.85;0.80;;;;;;;2.47;95.63;99906.59;5019789;28;20081;-70
2022/01/05 01:59:37;;;;;;;7.50;0.95;;;;;;;2.47;95.93;99905.78;5019248;28;20046;-71
2022/01/05 02:02:05;;;;;;;4.57;0.55;;;;;;;2.49;95.39;99903.94;5020398;28;20045;-72
2022/01/05 02:04:34;;;;;;;5.68;2.80;;;;;;;2.48;95.27;99913.47;5013963;28;20128;-71
2022/01/05 02:07:00;;;;;;;1.80;0.57;;;;;;;2.39;95.17;99911.41;5015531;28;20054;-72
2022/01/05 02:09:27;;;;;;;0.82;0.55;;;;;;;2.37;95.71;99911.63;5019522;28;20049;-71
2022/01/05 02:11:55;;;;;;;0.40;0.32;;;;;;;2.31;95.59;99911.94;5009582;28;20056;-72
2022/01/05 02:14:22;;;;;;;11.80;1.08;;;;;;;2.28;95.64;99912.97;5022150;28;20037;-71
2022/01/05 02:16:48;;;;;;;4.78;1.83;;;;;;;2.32;95.22;99922.25;5019034;28;20052;-71
2022/01/05 02:19:15;;;;;;;1.15;0.52;;;;;;;2.29;95.03;99914.66;5017425;28;20049;-71
2022/01/05 02:21:43;;;;;;;3.30;0.85;;;;;;;2.21;95.25;99918.63;5010436;28;20038;-70
2022/01/05 02:24:11;;;;;;;6.15;1.08;;;;;;;2.15;95.22;99916.38;5018586;28;20132;-70
2022/01/05 02:26:38;;;;;;;7.05;1.75;;;;;;;2.10;95.28;99911.44;5023411;28;20100;-72
2022/01/05 02:29:06;;;;;;;2.20;0.60;;;;;;;2.13;95.19;99921.63;5020435;28;20065;-72
2022/01/05 02:31:33;;;;;;;3.40;1.27;;;;;;;2.03;95.40;99923.09;5021996;28;20041;-71
2022/01/05 02:33:59;;;;;;;0.68;0.55;;;;;;;2.07;94.92;99924.59;5020806;28;20141;-72
2022/01/05 02:36:28;;;;;;;0.38;0.38;;;;;;;2.09;94.34;99922.75;5022524;28;20049;-70
2022/01/05 02:38:56;;;;;;;0.47;0.47;;;;;;;1.93;95.22;99918.53;5015599;28;20062;-72
2022/01/05 02:41:23;;;;;;;5.28;1.88;;;;;;;1.95;94.95;99930.47;5007992;28;20104;-72
2022/01/05 02:43:50;;;;;;;3.75;1.05;;;;;;;1.89;94.89;99917.03;5019343;28;20108;-71
2022/01/05 02:46:18;;;;;;;0.57;0.35;;;;;;;1.81;95.37;99927.84;5031575;28;20661;-72
2022/01/05 02:48:45;;;;;;;3.25;1.67;;;;;;;1.69;95.62;99931.09;5032584;28;20056;-73
2022/01/05 02:51:12;;;;;;;1.75;0.57;;;;;;;1.94;94.45;99933.97;5057552;28;20033;-72
2022/01/05 02:53:39;;;;;;;3.15;1.52;;;;;;;1.76;94.73;99936.78;5062862;28;20022;-72
2022/01/05 02:56:07;;;;;;;4.28;2.08;;;;;;;1.64;95.35;99942.66;5043939;28;20582;-71
2022/01/05 02:58:34;;;;;;;1.02;0.98;;;;;;;1.62;95.37;99949.66;5009285;28;20102;-71
2022/01/05 03:01:01;;;;;;;0.60;0.50;;;;;;;1.70;95.03;99947.47;5039970;28;20048;-72
2022/01/05 03:03:27;;;;;;;3.30;0.95;;;;;;;1.64;95.12;99951.25;5040899;28;20056;-71
2022/01/05 03:05:54;;;;;;;1.38;1.27;;;;;;;1.55;95.17;99948.34;5037129;28;20048;-70
2022/01/05 03:08:21;;;;;;;0.40;0.30;;;;;;;1.54;95.10;99956.16;5034644;28;20060;-71
2022/01/05 03:10:47;;;;;;;0.80;0.55;;;;;;;1.55;94.96;99960.44;5014784;28;20068;-71
2022/01/05 03:13:15;;;;;;;2.20;0.80;;;;;;;1.55;95.03;99963.88;5036200;28;20045;-72
2022/01/05 03:15:42;;;;;;;0.70;0.68;;;;;;;1.56;94.43;99969.84;5028984;28;20049;-70
2022/01/05 03:18:09;;;;;;;1.85;1.35;;;;;;;1.41;94.17;99975.88;5020519;28;20049;-72
2022/01/05 03:20:36;;;;;;;2.40;1.00;;;;;;;1.34;95.08;99982.31;5030718;28;20048;-71
2022/01/05 03:23:04;;;;;;;8.55;1.58;;;;;;;1.36;95.21;99983.88;5036385;28;20044;-71
2022/01/05 03:25:32;;;;;;;0.38;0.35;;;;;;;1.45;94.98;99990.31;5038371;28;20053;-71
2022/01/05 03:27:59;;;;;;;1.08;0.47;;;;;;;1.40;94.75;99987.97;5035450;28;20041;-70
2022/01/05 03:30:34;;;;;;;2.83;1.25;;;;;;;1.50;94.45;99989.13;5050494;28;20052;-71
2022/01/05 03:33:10;;;;;;;2.20;1.20;;;;;;;1.40;94.80;99989.72;5043142;28;20089;-72
2022/01/05 03:35:41;;;;;;;3.95;1.00;;;;;;;1.35;94.99;100002.91;5038352;28;20045;-71
2022/01/05 03:38:08;;;;;;;0.20;0.20;;;;;;;1.38;95.10;100000.16;5034513;28;20069;-70
2022/01/05 03:40:35;;;;;;;0.30;0.22;;;;;;;1.40;94.92;100002.66;5038239;28;20041;-71
2022/01/05 03:43:03;;;;;;;1.08;0.70;;;;;;;1.37;94.93;100005.41;5018699;28;20045;-71
2022/01/05 03:45:29;;;;;;;1.92;1.13;;;;;;;1.28;95.23;100011.91;5035909;28;20060;-71
2022/01/05 03:47:57;;;;;;;1.60;0.57;;;;;;;1.26;95.15;100010.34;5035552;28;20080;-70
2022/01/05 03:50:24;;;;;;;26.17;1.40;;;;;;;1.27;95.13;100012.00;5037858;28;20128;-72
2022/01/05 03:52:51;;;;;;;1.35;1.25;;;;;;;1.26;95.53;100007.75;5029896;28;20041;-71
2022/01/05 03:55:17;;;;;;;0.68;0.50;;;;;;;1.24;95.21;100017.34;5038042;28;20041;-72
2022/01/05 03:57:44;;;;;;;3.10;1.05;;;;;;;1.20;94.96;100023.56;5035807;28;20041;-71
2022/01/05 04:00:11;;;;;;;0.63;0.50;;;;;;;1.29;94.73;100017.91;5037262;28;20037;-71
2022/01/05 04:02:38;;;;;;;1.65;0.95;;;;;;;1.32;94.55;100030.69;5027747;28;20050;-74
2022/01/05 04:05:07;;;;;;;4.50;3.80;;;;;;;1.22;94.25;100029.50;5033066;28;20060;-71
2022/01/05 04:07:36;;;;;;;0.30;0.30;;;;;;;1.20;94.75;100044.25;5038459;28;20053;-71
2022/01/05 04:10:04;;;;;;;1.73;0.98;;;;;;;1.21;94.80;100038.19;5031109;28;20040;-70
2022/01/05 04:12:32;;;;;;;0.55;0.40;;;;;;;1.33;94.35;100040.13;5036547;28;20477;-70
2022/01/05 04:14:59;;;;;;;0.30;0.30;;;;;;;1.36;93.57;100047.72;5028601;28;20045;-72
2022/01/05 04:17:25;;;;;;;2.28;0.77;;;;;;;1.36;93.18;100042.53;5038085;28;20133;-72
2022/01/05 04:19:52;;;;;;;1.10;0.73;;;;;;;1.51;92.31;100046.91;5033391;28;20055;-71
2022/01/05 04:22:20;;;;;;;1.05;0.47;;;;;;;1.47;92.28;100042.81;5039158;28;20223;-73
2022/01/05 04:24:46;;;;;;;2.53;0.90;;;;;;;1.38;92.44;100048.47;5038123;28;20045;-70
2022/01/05 04:27:15;;;;;;;0.30;0.30;;;;;;;1.34;93.25;100063.31;5020186;28;20049;-71
2022/01/05 04:29:42;;;;;;;1.08;0.63;;;;;;;1.20;93.75;100059.78;5037083;28;20046;-73
2022/01/05 04:32:09;;;;;;;0.28;0.28;;;;;;;1.41;92.34;100048.31;5040262;28;20065;-72
2022/01/05 04:34:35;;;;;;;0.20;0.20;;;;;;;1.41;92.47;100048.31;5039690;28;20043;-72
2022/01/05 04:37:02;;;;;;;6.90;1.80;;;;;;;1.31;92.51;100058.34;5034821;28;20047;-72
2022/01/05 04:39:30;;;;;;;1.45;1.33;;;;;;;1.25;92.77;100047.47;5040184;28;20128;-70
2022/01/05 04:41:57;;;;;;;1.95;0.75;;;;;;;1.25;93.02;100063.81;5035153;28;20056;-72
2022/01/05 04:44:23;;;;;;;1.75;0.93;;;;;;;1.31;92.99;100060.06;5041948;28;20128;-71
2022/01/05 04:46:50;;;;;;;1.20;0.40;;;;;;;1.43;92.39;100051.66;5036930;28;20185;-72
2022/01/05 04:49:17;;;;;;;1.10;0.95;;;;;;;1.53;91.98;100050.25;5034768;28;20051;-72
2022/01/05 04:51:44;;;;;;;4.80;1.60;;;;;;;1.56;91.55;100057.84;5038348;28;20045;-72
2022/01/05 04:54:10;;;;;;;3.00;0.70;;;;;;;1.46;92.21;100060.09;5039522;28;20137;-70
2022/01/05 04:56:38;;;;;;;2.17;1.50;;;;;;;1.57;92.19;100057.75;5031184;28;20121;-71
2022/01/05 04:59:05;;;;;;;3.63;1.35;;;;;;;1.58;91.83;100062.88;5037186;28;20045;-70
2022/01/05 05:01:32;;;;;;;0.73;0.57;;;;;;;1.55;92.25;100059.63;5014725;28;20056;-70
2022/01/05 05:03:59;;;;;;;2.40;0.90;;;;;;;1.41;92.95;100063.84;5020475;28;20049;-71
2022/01/05 05:06:25;;;;;;;0.82;0.70;;;;;;;1.36;93.20;100071.00;5038138;28;20116;-70
2022/01/05 05:08:52;;;;;;;0.40;0.28;;;;;;;1.42;93.43;100068.94;5034669;28;20041;-71
2022/01/05 05:11:18;;;;;;;2.13;1.33;;;;;;;1.57;92.61;100072.47;5037646;28;20127;-70
2022/01/05 05:13:46;;;;;;;2.92;1.42;;;;;;;1.44;92.79;100069.69;5036554;28;20045;-71
2022/01/05 05:16:13;;;;;;;1.80;0.75;;;;;;;1.40;92.95;100075.94;5037483;28;20506;-71
2022/01/05 05:18:39;;;;;;;3.92;0.80;;;;;;;1.47;92.40;100072.13;5036050;28;20038;-70
2022/01/05 05:21:06;;;;;;;3.53;1.30;;;;;;;1.52;92.28;100082.25;5038596;28;20044;-72
2022/01/05 05:23:33;;;;;;;0.52;0.47;;;;;;;1.48;92.07;100091.06;5039824;28;20043;-70
2022/01/05 05:25:59;;;;;;;1.17;0.82;;;;;;;1.50;92.08;100074.53;5045240;28;20041;-69
2022/01/05 05:28:26;;;;;;;0.45;0.45;;;;;;;1.46;92.26;100070.47;5054027;28;20049;-72
2022/01/05 05:30:53;;;;;;;4.72;1.25;;;;;;;1.47;92.32;100074.72;5056744;28;20040;-72
2022/01/05 05:33:20;;;;;;;4.47;2.42;;;;;;;1.54;92.08;100081.22;5040388;28;20108;-71
2022/01/05 05:35:47;;;;;;;4.22;1.30;;;;;;;1.64;90.94;100078.06;5040238;28;20383;-71
2022/01/05 05:38:15;;;;;;;2.88;0.93;;;;;;;1.83;90.19;100070.13;5024131;28;20495;-71
2022/01/05 05:40:42;;;;;;;2.65;1.30;;;;;;;1.85;90.54;100076.91;5041312;28;20287;-70
2022/01/05 05:43:10;;;;;;;0.47;0.38;;;;;;;1.99;90.36;100077.00;5046793;28;20037;-71
2022/01/05 05:45:36;;;;;;;0.63;0.50;;;;;;;2.04;90.05;100087.94;5037868;28;20061;-71
2022/01/05 05:48:05;;;;;;;0.38;0.25;;;;;;;2.13;89.20;100084.84;5041147;28;20049;-69
2022/01/05 05:50:33;;;;;;;0.75;0.63;;;;;;;2.13;89.52;100076.25;5037443;28;20045;-70
2022/01/05 05:52:59;;;;;;;2.25;1.65;;;;;;;2.23;88.51;100075.66;5037514;28;20103;-71
2022/01/05 05:55:26;;;;;;;6.63;0.85;;;;;;;2.26;89.00;100072.03;5031514;28;20040;-71
2022/01/05 05:57:52;;;;;;;0.65;0.65;;;;;;;2.24;89.35;100074.72;5044023;28;20047;-72
2022/01/05 06:00:19;;;;;;;0.73;0.60;;;;;;;2.26;89.02;100072.03;5039145;28;20042;-73
2022/01/05 06:02:46;;;;;;;4.78;1.27;;;;;;;2.23;89.67;100080.81;5041899;28;20029;-73
2022/01/05 06:05:14;;;;;;;0.45;0.43;;;;;;;2.22;89.88;100080.88;5030532;28;20045;-71
2022/01/05 06:07:41;;;;;;;0.55;0.35;;;;;;;2.28;89.22;100080.56;5037029;28;20051;-70
2022/01/05 06:10:08;;;;;;;1.38;0.82;;;;;;;2.32;89.22;100084.63;5030142;28;20056;-71
2022/01/05 06:12:35;;;;;;;1.45;0.50;;;;;;;2.32;89.52;100093.28;5033523;28;20048;-71
2022/01/05 06:15:01;;;;;;;6.32;0.98;;;;;;;2.33;89.23;100081.13;5040222;28;20041;-70
2022/01/05 06:17:28;;;;;;;1.48;0.60;;;;;;;2.39;88.61;100095.41;5035518;28;20040;-70
2022/01/05 06:19:55;;;;;;;1.30;0.68;;;;;;;2.39;88.79;100099.78;5042368;28;20060;-70
2022/01/05 06:22:22;;;;;;;7.50;0.95;;;;;;;2.38;89.58;100103.28;5037439;28;20510;-71
2022/01/05 06:24:49;;;;;;;0.93;0.82;;;;;;;2.39;89.50;100107.56;5038965;28;20033;-70
2022/01/05 06:27:15;;;;;;;1.17;1.08;;;;;;;2.46;88.69;100109.69;5026338;28;20044;-71
2022/01/05 06:29:42;;;;;;;5.22;2.70;;;;;;;2.48;88.74;100120.00;5040089;28;20047;-70
2022/01/05 06:32:09;;;;;;;7.85;1.33;;;;;;;2.44;89.61;100115.88;5043484;28;20041;-71
2022/01/05 06:34:36;;;;;;;2.97;1.90;;;;;;;2.47;89.52;100113.13;5037063;28;20041;-70
2022/01/05 06:37:03;;;;;;;1.52;1.42;;;;;;;2.51;89.20;100122.41;5037921;28;20045;-71
2022/01/05 06:39:32;;;;;;;4.82;1.75;;;;;;;2.47;89.31;100119.13;5036301;28;20048;-71
2022/01/05 06:41:58;;;;;;;2.63;1.08;;;;;;;2.50;88.88;100121.56;5013902;28;20147;-70
2022/01/05 06:44:25;;;;;;;2.85;1.52;;;;;;;2.49;90.21;100108.72;5032190;28;20175;-71
2022/01/05 06:46:51;;;;;;;7.05;1.98;;;;;;;2.51;89.36;100109.44;5038304;28;20138;-70
2022/01/05 06:49:19;;;;;;;2.03;0.77;;;;;;;2.49;88.92;100112.13;5030201;28;20044;-71
2022/01/05 06:51:45;;;;;;;8.35;1.75;;;;;;;2.50;88.92;100115.56;5036363;28;20057;-71
2022/01/05 06:54:12;;;;;;;3.17;1.05;;;;;;;2.40;89.67;100117.00;5026150;28;20049;-71
2022/01/05 06:56:39;;;;;;;1.30;1.15;;;;;;;2.36;89.92;100125.84;5039968;28;20052;-71
2022/01/05 06:59:06;;;;;;;1.55;1.15;;;;;;;2.45;90.49;100140.88;5025408;28;20144;-71
2022/01/05 07:01:33;;;;;;;19.05;1.35;;;;;;;2.48;89.80;100117.41;5015970;28;20499;-71
2022/01/05 07:04:02;;;;;;;20.67;1.27;;;;;;;2.55;88.97;100132.50;5042277;28;20068;-70
2022/01/05 07:06:28;;;;;;;0.50;0.50;;;;;;;2.60;89.54;100137.44;5036816;28;20049;-72
2022/01/05 07:08:55;;;;;;;5.82;1.23;;;;;;;2.59;89.82;100140.94;5032197;28;20053;-71
2022/01/05 07:11:22;;;;;;;1.70;0.88;;;;;;;2.61;89.47;100128.75;5034298;28;20153;-72
2022/01/05 07:13:50;;;;;;;5.40;1.73;;;;;;;2.61;88.66;100120.97;5036326;28;20041;-73
2022/01/05 07:16:17;;;;;;;4.88;0.95;;;;;;;2.68;88.75;100132.66;5031771;28;20407;-71
2022/01/05 07:18:43;;;;;;;0.60;0.47;;;;;;;2.60;89.09;100130.50;5035610;28;20068;-69
2022/01/05 07:21:10;;;;;;;4.57;1.08;;;;;;;2.50;90.02;100123.34;5030666;28;20049;-70
2022/01/05 07:23:36;;;;;;;2.45;1.25;;;;;;;2.55;89.32;100127.31;5038286;28;20051;-71
2022/01/05 07:26:03;;;;;;;0.77;0.77;;;;;;;2.58;89.50;100139.31;5032936;28;20051;-71
2022/01/05 07:28:29;;;;;;;2.35;1.17;;;;;;;2.64;89.52;100147.53;5018461;28;20091;-71
2022/01/05 07:30:57;;;;;;;1.70;0.60;;;;;;;2.72;88.96;100152.31;5014234;28;20060;-72
2022/01/05 07:33:24;;;;;;;0.80;0.50;;;;;;;2.77;89.16;100153.72;5036051;28;20077;-71
2022/01/05 07:35:51;;;;;;;2.70;0.50;;;;;;;2.75;89.02;100149.56;5030159;28;20136;-71
2022/01/05 07:38:18;;;;;;;1.35;0.60;;;;;;;2.84;88.70;100159.38;5032263;28;20041;-72
2022/01/05 07:40:44;;;;;;;3.28;1.00;;;;;;;2.86;89.11;100173.09;5037734;28;20055;-71
2022/01/05 07:43:11;;;;;;;1.02;0.60;;;;;;;2.87;89.04;100161.81;5039086;28;20046;-70
2022/01/05 07:45:37;;;;;;;3.10;1.15;;;;;;;2.91;89.17;100163.31;5038774;28;20103;-72
2022/01/05 07:48:06;;;;;;;3.42;1.55;;;;;;;2.93;88.83;100169.22;5028262;28;20078;-71
2022/01/05 07:50:33;;;;;;;1.55;0.98;;;;;;;2.93;88.66;100166.63;5034988;28;20131;-70
2022/01/05 07:53:03;;;;;;;4.78;1.20;;;;;;;2.97;89.11;100173.34;5045921;28;20047;-72
2022/01/05 07:55:31;;;;;;;3.50;1.25;;;;;;;2.96;89.11;100172.47;5040446;28;20072;-69
2022/01/05 07:57:58;;;;;;;3.05;1.42;;;;;;;3.00;89.26;100178.31;5034455;28;20103;-70
2022/01/05 08:00:25;;;;;;;1.55;0.85;;;;;;;3.00;89.50;100180.91;5029707;28;21158;-71
2022/01/05 08:02:51;;;;;;;1.17;0.70;;;;;;;3.02;88.71;100192.06;5047999;28;20109;-70
2022/01/05 08:05:19;;;;;;;0.47;0.35;;;;;;;3.08;88.33;100182.16;5055585;28;20040;-70
2022/01/05 08:07:46;;;;;;;5.63;1.40;;;;;;;3.11;88.67;100186.34;5014154;28;20076;-71
2022/01/05 08:10:12;;;;;;;5.68;1.27;;;;;;;3.08;89.14;100183.94;5027531;28;20041;-70
2022/01/05 08:12:41;;;;;;;0.93;0.68;;;;;;;3.12;88.46;100180.22;5017650;28;20049;-70
2022/01/05 08:15:09;;;;;;;3.00;1.05;;;;;;;3.16;87.94;100192.13;5026456;28;20047;-71
2022/01/05 08:17:35;;;;;;;0.60;0.60;;;;;;;3.17;88.35;100190.25;5036953;28;20037;-70
2022/01/05 08:20:03;;;;;;;4.00;0.93;;;;;;;3.17;89.13;100195.44;5031440;28;20147;-70
2022/01/05 08:22:31;;;;;;;10.25;2.47;;;;;;;3.18;88.72;100201.47;5031216;28;20124;-71
2022/01/05 08:24:57;;;;;;;3.58;0.93;;;;;;;3.17;88.81;100205.81;5028678;28;20045;-70
2022/01/05 08:27:24;;;;;;;7.78;1.17;;;;;;;3.19;88.80;100209.16;5034020;28;20060;-71
2022/01/05 08:29:50;;;;;;;5.45;2.08;;;;;;;3.21;88.86;100204.72;5023461;28;20073;-71
2022/01/05 08:32:16;;;;;;;4.32;1.05;;;;;;;3.28;88.16;100218.19;5035394;28;20048;-71
2022/01/05 08:34:43;;;;;;;31.23;3.50;;;;;;;3.29;88.80;100212.06;5032378;28;20047;-69
2022/01/05 08:37:10;;;;;;;1.38;1.05;;;;;;;3.34;88.46;100216.06;5035710;28;20124;-70
2022/01/05 08:39:38;;;;;;;1.85;1.27;;;;;;;3.41;88.57;100213.97;5035336;28;20429;-69
2022/01/05 08:42:05;;;;;;;3.40;1.38;;;;;;;3.55;88.12;100219.16;5032626;28;20068;-70
2022/01/05 08:44:33;;;;;;;7.30;1.08;;;;;;;3.68;87.84;100210.56;5032702;28;20049;-71
2022/01/05 08:46:59;;;;;;;1.55;1.15;;;;;;;3.85;87.10;100205.19;5033515;28;20132;-71
2022/01/05 08:49:26;;;;;;;1.90;0.65;;;;;;;3.90;86.42;100197.94;5035267;28;20053;-70
2022/01/05 08:51:54;;;;;;;10.02;2.85;;;;;;;3.93;86.75;100217.75;5030559;28;20107;-71
2022/01/05 08:54:20;;;;;;;5.88;1.42;;;;;;;4.03;86.24;100235.28;5030192;28;20136;-70
2022/01/05 08:56:49;;;;;;;2.72;1.83;;;;;;;4.01;86.90;100216.34;5025347;28;20124;-69
2022/01/05 08:59:16;;;;;;;2.83;0.70;;;;;;;3.91;87.54;100215.22;5038299;28;20123;-70
2022/01/05 09:01:44;;;;;;;4.72;1.73;;;;;;;3.82;87.14;100220.97;5025448;28;20135;-70
2022/01/05 09:04:10;;;;;;;2.95;0.60;;;;;;;3.76;87.09;100218.72;5036924;28;20045;-69
2022/01/05 09:06:37;;;;;;;5.82;1.00;;;;;;;3.78;87.29;100218.63;5031439;28;20045;-68
2022/01/05 09:09:03;;;;;;;2.28;0.98;;;;;;;3.79;88.07;100220.31;5038109;28;20067;-71
2022/01/05 09:11:30;;;;;;;1.70;0.95;;;;;;;3.66;88.31;100217.59;5012306;28;20081;-72
2022/01/05 09:13:58;;;;;;;0.77;0.45;;;;;;;3.61;88.25;100227.44;5022715;28;20417;-69
2022/01/05 09:16:25;;;;;;;2.78;1.25;;;;;;;3.52;88.77;100222.78;5042678;28;20041;-70
2022/01/05 09:18:51;;;;;;;1.48;0.43;;;;;;;3.51;89.44;100223.72;5037010;28;20037;-70
2022/01/05 09:21:18;;;;;;;3.60;2.13;;;;;;;3.83;88.65;100221.81;5035921;28;20045;-69
2022/01/05 09:23:44;;;;;;;3.33;1.13;;;;;;;4.20;86.51;100225.50;5032914;28;20051;-70
2022/01/05 09:26:11;;;;;;;7.20;1.38;;;;;;;4.54;84.86;100224.28;5021619;28;20052;-69
2022/01/05 09:28:42;;;;;;;2.95;0.63;;;;;;;5.12;83.92;100236.91;5026929;28;20041;-69
2022/01/05 09:31:10;;;;;;;25.20;1.80;;;;;;;5.71;80.64;100232.00;5023572;28;20411;-70
2022/01/05 09:33:37;;;;;;;7.13;2.65;;;;;;;5.61;80.37;100230.94;5033612;28;20056;-70
2022/01/05 09:36:10;;;;;;;1.63;1.00;;;;;;;5.63;80.32;100233.44;5039208;28;20045;-70
2022/01/05 09:41:56;;;;;;;5.45;1.58;;;;;;;5.76;80.13;100236.91;5037110;28;20059;-71
2022/01/05 09:44:11;;;;;;;2.67;0.93;;;;;;;5.06;83.29;100228.66;5030400;28;20045;-70
2022/01/05 09:46:45;;;;;;;3.58;1.15;;;;;;;4.93;84.93;100239.03;5038887;28;20044;-68
2022/01/05 09:49:14;;;;;;;1.92;1.08;;;;;;;4.84;84.73;100252.63;5036108;28;20554;-69
2022/01/05 09:51:42;;;;;;;3.05;0.82;;;;;;;4.76;85.37;100257.47;5018008;28;20061;-70
2022/01/05 09:54:10;;;;;;;4.82;1.08;;;;;;;4.68;85.21;100238.06;5038158;28;20044;-72
2022/01/05 09:56:50;;;;;;;1.75;0.55;;;;;;;4.63;86.49;100245.31;5034650;28;20107;-69
2022/01/05 09:59:16;;;;;;;1.63;1.52;;;;;;;4.60;86.99;100250.72;5039475;28;20068;-69
2022/01/05 10:01:44;;;;;;;3.40;1.23;;;;;;;4.72;87.12;100252.56;5037987;28;20041;-70
2022/01/05 10:04:13;;;;;;;3.20;2.30;;;;;;;4.73;87.08;100262.84;5048517;28;20139;-70
2022/01/05 10:06:40;;;;;;;2.42;1.15;;;;;;;4.61;86.98;100243.75;5039245;28;20131;-70
2022/01/05 10:09:08;;;;;;;2.55;1.85;;;;;;;4.74;87.60;100256.72;5039718;28;20041;-72
2022/01/05 10:11:35;;;;;;;4.47;2.25;;;;;;;4.82;87.97;100259.66;5038366;28;20052;-69
2022/01/05 10:14:02;;;;;;;9.80;2.20;;;;;;;4.80;87.91;100255.50;5039692;28;20037;-72
2022/01/05 10:16:30;;;;;;;4.78;0.85;;;;;;;4.64;87.92;100267.81;5039749;28;20041;-69
2022/01/05 10:18:59;;;;;;;3.80;2.05;;;;;;;4.58;87.62;100264.75;5039233;28;20064;-71
2022/01/05 10:21:33;;;;;;;8.02;0.77;;;;;;;4.53;88.40;100266.81;5039056;28;20037;-71
2022/01/05 10:24:00;;;;;;;1.20;0.43;;;;;;;4.55;88.35;100270.97;5037926;28;20041;-71
2022/01/05 10:26:28;;;;;;;2.65;1.77;;;;;;;4.54;88.66;100273.69;5039267;28;20129;-71
2022/01/05 10:28:57;;;;;;;1.60;1.02;;;;;;;4.48;89.21;100248.03;5039518;28;20037;-71
2022/01/05 10:31:26;;;;;;;17.15;2.22;;;;;;;4.40;89.24;100242.47;5030312;28;20040;-70
2022/01/05 10:33:53;;;;;;;5.20;1.35;;;;;;;4.44;90.73;100264.78;5042055;28;20043;-72
2022/01/05 10:36:21;;;;;;;1.48;0.77;;;;;;;4.49;89.00;100275.72;5035324;28;20105;-72
2022/01/05 10:38:53;;;;;;;3.25;1.05;;;;;;;4.51;90.79;100261.72;5029432;28;20053;-71
2022/01/05 10:41:21;;;;;;;0.52;0.50;;;;;;;4.67;90.99;100264.16;5055059;28;20061;-72
2022/01/05 10:44:08;;;;;;;4.82;1.63;;;;;;;4.80;90.66;100271.13;5037954;28;20060;-72
2022/01/05 10:46:36;;;;;;;3.38;0.85;;;;;;;4.68;90.51;100269.28;5041502;28;20041;-72
2022/01/05 10:49:03;;;;;;;3.45;0.90;;;;;;;4.64;90.29;100270.41;5037895;28;20041;-72
2022/01/05 10:51:33;;;;;;;7.25;1.98;;;;;;;4.59;90.78;100282.03;5015454;28;20064;-72
2022/01/05 10:54:14;;;;;;;10.98;1.27;;;;;;;4.59;90.73;100287.22;5025744;28;20045;-73
2022/01/05 10:56:41;;;;;;;2.95;0.60;;;;;;;4.62;91.31;100293.06;5037886;28;20048;-71
2022/01/05 10:59:07;;;;;;;5.30;1.35;;;;;;;4.67;90.33;100287.59;5026199;28;20040;-72
2022/01/05 11:01:34;;;;;;;1.98;0.70;;;;;;;4.69;90.46;100293.53;5026261;28;20136;-72
2022/01/05 11:04:15;;;;;;;14.43;1.55;;;;;;;4.71;90.09;100286.47;5034331;28;20049;-73
2022/01/05 11:06:59;;;;;;;3.60;1.42;;;;;;;4.73;90.29;100301.06;5035975;28;20041;-73
2022/01/05 11:09:26;;;;;;;25.17;1.67;;;;;;;4.84;88.76;100291.66;5025967;28;20049;-72
2022/01/05 11:11:53;;;;;;;6.28;1.77;;;;;;;4.97;88.21;100295.13;5041401;28;20032;-73
2022/01/05 11:14:21;;;;;;;10.68;0.95;;;;;;;5.18;88.31;100293.78;5024190;28;20073;-72
2022/01/05 11:16:50;;;;;;;2.53;1.15;;;;;;;5.54;87.35;100296.59;5033810;28;20053;-71
2022/01/05 11:19:21;;;;;;;3.00;1.63;;;;;;;5.85;86.68;100288.47;5032184;28;20091;-72
2022/01/05 11:22:10;;;;;;;0.30;0.28;;;;;;;5.93;85.84;100315.66;5032981;28;20383;-72
2022/01/05 11:24:39;;;;;;;2.35;0.95;;;;;;;5.80;86.22;100295.72;5029430;28;20049;-71
2022/01/05 11:27:07;;;;;;;14.52;1.85;;;;;;;5.82;86.36;100286.03;5033960;28;20049;-72
2022/01/05 11:29:34;;;;;;;4.65;1.30;;;;;;;5.83;86.45;100303.34;5035368;28;20506;-74
2022/01/05 11:32:02;;;;;;;4.63;2.03;;;;;;;5.70;85.82;100302.47;5034953;28;20064;-72
2022/01/05 11:34:30;;;;;;;30.83;1.30;;;;;;;5.65;86.18;100307.16;5037864;28;20075;-74
2022/01/05 11:36:58;;;;;;;0.65;0.50;;;;;;;5.63;86.73;100307.25;5035725;28;20126;-72
2022/01/05 11:39:25;;;;;;;3.28;1.13;;;;;;;5.64;86.28;100308.94;5031983;28;20033;-73
2022/01/05 11:41:53;;;;;;;2.08;0.75;;;;;;;5.57;86.58;100306.81;5034738;28;20061;-72
2022/01/05 11:44:20;;;;;;;1.33;0.82;;;;;;;5.61;86.65;100310.91;5036609;28;20060;-72